Terminal Aerodrome Forecast
Issued by NWS Charleston, WV

Home | Current Version | Previous Version | Text Only | Print | Product List | Glossary On
Versions: 1 2 3 4 5 6 7 8 9 10 11 12 13 14 15 16 17 18 19 20 21 22 23 24 25 26
000
FTUS41 KRLX 011100
TAFCRW
TAF
KCRW 011123Z 0112/0212 00000KT P6SM OVC110
     FM012300 17011G17KT 5SM BR OVC070
     FM020200 18011G17KT 3SM -RA BR OVC030
     FM020300 19011G17KT 2SM -RA BR OVC015
     FM020700 22009G14KT 3SM -RA BR OVC008=

USA.gov is the U.S. government's official web portal to all federal, state and local government web resources and services.